sensor_id;sensor_type;location;lat;lon;timestamp;temperature;humidity
9699;DHT22;10089;47.876;8.346;2022-11-03T00:01:32;4.80;99.90
9699;DHT22;10089;47.876;8.346;2022-11-03T00:03:58;4.80;99.90
9699;DHT22;10089;47.876;8.346;2022-11-03T00:06:23;4.80;99.90
9699;DHT22;10089;47.876;8.346;2022-11-03T00:08:49;4.80;99.90
9699;DHT22;10089;47.876;8.346;2022-11-03T00:11:14;4.70;99.90
9699;DHT22;10089;47.876;8.346;2022-11-03T00:13:41;4.80;99.90
9699;DHT22;10089;47.876;8.346;2022-11-03T00:16:08;4.70;99.90
9699;DHT22;10089;47.876;8.346;2022-11-03T00:18:34;4.70;99.90
9699;DHT22;10089;47.876;8.346;2022-11-03T00:21:07;4.60;99.90
9699;DHT22;10089;47.876;8.346;2022-11-03T00:23:34;4.60;99.90
9699;DHT22;10089;47.876;8.346;2022-11-03T00:26:03;4.60;99.90
9699;DHT22;10089;47.876;8.346;2022-11-03T00:28:30;4.60;99.90
9699;DHT22;10089;47.876;8.346;2022-11-03T00:30:56;4.60;99.90
9699;DHT22;10089;47.876;8.346;2022-11-03T00:33:22;4.40;99.90
9699;DHT22;10089;47.876;8.346;2022-11-03T00:35:55;4.40;99.90
9699;DHT22;10089;47.876;8.346;2022-11-03T00:38:20;4.50;99.90
9699;DHT22;10089;47.876;8.346;2022-11-03T00:40:51;4.40;99.90
9699;DHT22;10089;47.876;8.346;2022-11-03T00:43:17;4.40;99.90
9699;DHT22;10089;47.876;8.346;2022-11-03T00:45:42;4.40;99.90
9699;DHT22;10089;47.876;8.346;2022-11-03T00:48:08;4.30;99.90
9699;DHT22;10089;47.876;8.346;2022-11-03T00:50:52;4.30;99.90
9699;DHT22;10089;47.876;8.346;2022-11-03T00:53:17;4.30;99.90
9699;DHT22;10089;47.876;8.346;2022-11-03T00:55:47;4.40;99.90
9699;DHT22;10089;47.876;8.346;2022-11-03T00:58:13;4.40;99.90
9699;DHT22;10089;47.876;8.346;2022-11-03T01:00:38;4.50;99.90
9699;DHT22;10089;47.876;8.346;2022-11-03T01:03:05;4.50;99.90
9699;DHT22;10089;47.876;8.346;2022-11-03T01:05:30;4.50;99.90
9699;DHT22;10089;47.876;8.346;2022-11-03T01:08:15;4.40;99.90
9699;DHT22;10089;47.876;8.346;2022-11-03T01:10:40;4.40;99.90
9699;DHT22;10089;47.876;8.346;2022-11-03T01:13:26;4.30;99.90
9699;DHT22;10089;47.876;8.346;2022-11-03T01:15:55;4.30;99.90
9699;DHT22;10089;47.876;8.346;2022-11-03T01:18:21;4.30;99.90
9699;DHT22;10089;47.876;8.346;2022-11-03T01:20:46;4.30;99.90
9699;DHT22;10089;47.876;8.346;2022-11-03T01:23:18;4.30;99.90
9699;DHT22;10089;47.876;8.346;2022-11-03T01:25:43;4.20;99.90
9699;DHT22;10089;47.876;8.346;2022-11-03T01:28:09;4.10;99.90
9699;DHT22;10089;47.876;8.346;2022-11-03T01:30:34;4.20;99.90
9699;DHT22;10089;47.876;8.346;2022-11-03T01:33:00;4.20;99.90
9699;DHT22;10089;47.876;8.346;2022-11-03T01:35:25;4.10;99.90
9699;DHT22;10089;47.876;8.346;2022-11-03T01:37:51;4.10;99.90
9699;DHT22;10089;47.876;8.346;2022-11-03T01:40:16;4.10;99.90
9699;DHT22;10089;47.876;8.346;2022-11-03T01:42:43;4.20;99.90
9699;DHT22;10089;47.876;8.346;2022-11-03T01:45:09;4.20;99.90
9699;DHT22;10089;47.876;8.346;2022-11-03T01:47:34;4.10;99.90
9699;DHT22;10089;47.876;8.346;2022-11-03T01:50:02;4.20;99.90
9699;DHT22;10089;47.876;8.346;2022-11-03T01:52:36;4.30;99.90
9699;DHT22;10089;47.876;8.346;2022-11-03T01:55:05;4.20;99.90
9699;DHT22;10089;47.876;8.346;2022-11-03T01:57:33;4.20;99.90
9699;DHT22;10089;47.876;8.346;2022-11-03T02:00:01;4.10;99.90
9699;DHT22;10089;47.876;8.346;2022-11-03T02:02:29;4.10;99.90
9699;DHT22;10089;47.876;8.346;2022-11-03T02:04:54;4.10;99.90
9699;DHT22;10089;47.876;8.346;2022-11-03T02:07:29;4.20;99.90
9699;DHT22;10089;47.876;8.346;2022-11-03T02:09:57;4.20;99.90
9699;DHT22;10089;47.876;8.346;2022-11-03T02:12:22;4.20;99.90
9699;DHT22;10089;47.876;8.346;2022-11-03T02:15:02;4.20;99.90
9699;DHT22;10089;47.876;8.346;2022-11-03T02:17:29;4.20;99.90
9699;DHT22;10089;47.876;8.346;2022-11-03T02:25:13;4.10;99.90
9699;DHT22;10089;47.876;8.346;2022-11-03T02:27:39;4.10;99.90
9699;DHT22;10089;47.876;8.346;2022-11-03T02:30:05;4.10;99.90
9699;DHT22;10089;47.876;8.346;2022-11-03T02:35:04;4.00;99.90
9699;DHT22;10089;47.876;8.346;2022-11-03T02:37:33;5.00;99.90
9699;DHT22;10089;47.876;8.346;2022-11-03T02:40:04;4.00;99.90
9699;DHT22;10089;47.876;8.346;2022-11-03T02:42:30;4.00;99.90
9699;DHT22;10089;47.876;8.346;2022-11-03T02:44:57;4.30;99.90
9699;DHT22;10089;47.876;8.346;2022-11-03T02:47:24;4.40;99.90
9699;DHT22;10089;47.876;8.346;2022-11-03T02:49:52;4.10;99.90
9699;DHT22;10089;47.876;8.346;2022-11-03T02:55:08;4.10;99.90
9699;DHT22;10089;47.876;8.346;2022-11-03T02:57:34;4.00;99.90
9699;DHT22;10089;47.876;8.346;2022-11-03T03:00:03;4.00;99.90
9699;DHT22;10089;47.876;8.346;2022-11-03T03:02:54;4.00;99.90
9699;DHT22;10089;47.876;8.346;2022-11-03T03:05:24;4.00;99.90
9699;DHT22;10089;47.876;8.346;2022-11-03T03:07:52;4.00;99.90
9699;DHT22;10089;47.876;8.346;2022-11-03T03:10:19;3.90;99.90
9699;DHT22;10089;47.876;8.346;2022-11-03T03:12:46;3.90;99.90
9699;DHT22;10089;47.876;8.346;2022-11-03T03:15:13;4.00;99.90
9699;DHT22;10089;47.876;8.346;2022-11-03T03:22:56;3.80;99.90
9699;DHT22;10089;47.876;8.346;2022-11-03T03:27:49;3.60;99.90
9699;DHT22;10089;47.876;8.346;2022-11-03T03:30:15;3.70;99.90
9699;DHT22;10089;47.876;8.346;2022-11-03T03:32:48;3.70;99.90
9699;DHT22;10089;47.876;8.346;2022-11-03T03:35:18;3.70;99.90
9699;DHT22;10089;47.876;8.346;2022-11-03T03:37:45;3.70;99.90
9699;DHT22;10089;47.876;8.346;2022-11-03T03:40:13;3.60;99.90
9699;DHT22;10089;47.876;8.346;2022-11-03T03:42:40;3.60;99.90
9699;DHT22;10089;47.876;8.346;2022-11-03T03:45:07;3.60;99.90
9699;DHT22;10089;47.876;8.346;2022-11-03T03:47:34;3.70;99.90
9699;DHT22;10089;47.876;8.346;2022-11-03T03:49:59;3.70;99.90
9699;DHT22;10089;47.876;8.346;2022-11-03T03:52:25;3.60;99.90
9699;DHT22;10089;47.876;8.346;2022-11-03T03:54:51;3.60;99.90
9699;DHT22;10089;47.876;8.346;2022-11-03T03:57:21;3.60;99.90
9699;DHT22;10089;47.876;8.346;2022-11-03T03:59:47;3.50;99.90
9699;DHT22;10089;47.876;8.346;2022-11-03T04:02:12;3.60;99.90
9699;DHT22;10089;47.876;8.346;2022-11-03T04:04:38;3.60;99.90
9699;DHT22;10089;47.876;8.346;2022-11-03T04:07:04;3.60;99.90
9699;DHT22;10089;47.876;8.346;2022-11-03T04:09:48;3.70;99.90
9699;DHT22;10089;47.876;8.346;2022-11-03T04:12:13;3.60;99.90
9699;DHT22;10089;47.876;8.346;2022-11-03T04:14:57;3.60;99.90
9699;DHT22;10089;47.876;8.346;2022-11-03T04:17:42;3.60;99.90
9699;DHT22;10089;47.876;8.346;2022-11-03T04:20:27;3.60;99.90
9699;DHT22;10089;47.876;8.346;2022-11-03T04:23:12;3.60;99.90
9699;DHT22;10089;47.876;8.346;2022-11-03T04:25:38;3.60;99.90
9699;DHT22;10089;47.876;8.346;2022-11-03T04:28:07;3.60;99.90
9699;DHT22;10089;47.876;8.346;2022-11-03T04:30:34;3.60;99.90
9699;DHT22;10089;47.876;8.346;2022-11-03T04:32:59;3.50;99.90
9699;DHT22;10089;47.876;8.346;2022-11-03T04:35:26;3.60;99.90
9699;DHT22;10089;47.876;8.346;2022-11-03T04:38:00;3.60;99.90
9699;DHT22;10089;47.876;8.346;2022-11-03T04:40:26;3.60;99.90
9699;DHT22;10089;47.876;8.346;2022-11-03T04:42:52;3.60;99.90
9699;DHT22;10089;47.876;8.346;2022-11-03T04:47:46;3.70;99.90
9699;DHT22;10089;47.876;8.346;2022-11-03T04:50:16;3.70;99.90
9699;DHT22;10089;47.876;8.346;2022-11-03T04:52:43;3.80;99.90
9699;DHT22;10089;47.876;8.346;2022-11-03T04:55:17;3.90;99.90
9699;DHT22;10089;47.876;8.346;2022-11-03T04:57:44;4.00;99.90
9699;DHT22;10089;47.876;8.346;2022-11-03T05:00:19;4.00;99.90
9699;DHT22;10089;47.876;8.346;2022-11-03T05:02:45;4.10;99.90
9699;DHT22;10089;47.876;8.346;2022-11-03T05:05:18;4.30;99.90
9699;DHT22;10089;47.876;8.346;2022-11-03T05:07:45;4.20;99.90
9699;DHT22;10089;47.876;8.346;2022-11-03T05:10:14;4.30;99.90
9699;DHT22;10089;47.876;8.346;2022-11-03T05:12:40;4.40;99.90
9699;DHT22;10089;47.876;8.346;2022-11-03T05:15:07;4.40;99.90
9699;DHT22;10089;47.876;8.346;2022-11-03T05:17:34;4.50;99.90
9699;DHT22;10089;47.876;8.346;2022-11-03T05:20:01;4.80;99.90
9699;DHT22;10089;47.876;8.346;2022-11-03T05:22:29;4.80;99.90
9699;DHT22;10089;47.876;8.346;2022-11-03T05:24:56;4.90;99.90
9699;DHT22;10089;47.876;8.346;2022-11-03T05:27:22;5.20;99.90
9699;DHT22;10089;47.876;8.346;2022-11-03T05:29:49;5.20;99.90
9699;DHT22;10089;47.876;8.346;2022-11-03T05:32:15;5.20;99.90
9699;DHT22;10089;47.876;8.346;2022-11-03T05:34:47;5.20;99.90
9699;DHT22;10089;47.876;8.346;2022-11-03T05:39:40;5.20;99.90
9699;DHT22;10089;47.876;8.346;2022-11-03T05:44:51;5.40;99.90
9699;DHT22;10089;47.876;8.346;2022-11-03T05:47:19;5.50;99.90
9699;DHT22;10089;47.876;8.346;2022-11-03T05:49:45;5.50;99.90
9699;DHT22;10089;47.876;8.346;2022-11-03T05:52:12;5.50;99.90
9699;DHT22;10089;47.876;8.346;2022-11-03T05:54:39;5.60;99.90
9699;DHT22;10089;47.876;8.346;2022-11-03T05:57:11;5.80;99.90
9699;DHT22;10089;47.876;8.346;2022-11-03T05:59:37;5.70;99.90
9699;DHT22;10089;47.876;8.346;2022-11-03T06:02:03;5.80;99.90
9699;DHT22;10089;47.876;8.346;2022-11-03T06:04:35;5.70;99.90
9699;DHT22;10089;47.876;8.346;2022-11-03T06:07:04;5.70;99.90
9699;DHT22;10089;47.876;8.346;2022-11-03T06:09:31;5.70;99.90
9699;DHT22;10089;47.876;8.346;2022-11-03T06:11:57;5.70;99.90
9699;DHT22;10089;47.876;8.346;2022-11-03T06:14:24;5.70;99.90
9699;DHT22;10089;47.876;8.346;2022-11-03T06:17:00;5.70;99.90
9699;DHT22;10089;47.876;8.346;2022-11-03T06:19:30;5.80;99.90
9699;DHT22;10089;47.876;8.346;2022-11-03T06:24:40;5.80;99.90
9699;DHT22;10089;47.876;8.346;2022-11-03T06:27:17;5.80;99.90
9699;DHT22;10089;47.876;8.346;2022-11-03T06:29:46;5.90;99.90
9699;DHT22;10089;47.876;8.346;2022-11-03T06:32:13;5.90;99.90
9699;DHT22;10089;47.876;8.346;2022-11-03T06:34:45;6.00;99.90
9699;DHT22;10089;47.876;8.346;2022-11-03T06:39:40;6.00;99.90
9699;DHT22;10089;47.876;8.346;2022-11-03T06:42:12;6.10;99.90
9699;DHT22;10089;47.876;8.346;2022-11-03T06:44:41;6.10;99.90
9699;DHT22;10089;47.876;8.346;2022-11-03T06:47:21;6.10;99.90
9699;DHT22;10089;47.876;8.346;2022-11-03T06:49:50;6.10;99.90
9699;DHT22;10089;47.876;8.346;2022-11-03T06:52:30;6.20;99.90
9699;DHT22;10089;47.876;8.346;2022-11-03T06:55:00;6.20;99.90
9699;DHT22;10089;47.876;8.346;2022-11-03T06:57:43;6.30;99.90
9699;DHT22;10089;47.876;8.346;2022-11-03T07:00:14;6.40;99.90
9699;DHT22;10089;47.876;8.346;2022-11-03T07:05:28;6.40;99.90
9699;DHT22;10089;47.876;8.346;2022-11-03T07:07:55;6.50;99.90
9699;DHT22;10089;47.876;8.346;2022-11-03T07:10:30;6.60;99.90
9699;DHT22;10089;47.876;8.346;2022-11-03T07:13:05;6.80;99.90
9699;DHT22;10089;47.876;8.346;2022-11-03T07:15:34;6.90;99.90
9699;DHT22;10089;47.876;8.346;2022-11-03T07:18:03;6.70;99.90
9699;DHT22;10089;47.876;8.346;2022-11-03T07:20:29;6.70;99.90
9699;DHT22;10089;47.876;8.346;2022-11-03T07:22:55;6.70;99.90
9699;DHT22;10089;47.876;8.346;2022-11-03T07:25:21;6.80;99.90
9699;DHT22;10089;47.876;8.346;2022-11-03T07:27:47;6.80;99.90
9699;DHT22;10089;47.876;8.346;2022-11-03T07:30:19;6.80;99.90
9699;DHT22;10089;47.876;8.346;2022-11-03T07:32:45;6.80;99.90
9699;DHT22;10089;47.876;8.346;2022-11-03T07:37:47;6.90;99.90
9699;DHT22;10089;47.876;8.346;2022-11-03T07:40:15;6.90;99.90
9699;DHT22;10089;47.876;8.346;2022-11-03T07:42:41;6.80;99.90
9699;DHT22;10089;47.876;8.346;2022-11-03T07:45:29;6.80;99.90
9699;DHT22;10089;47.876;8.346;2022-11-03T07:47:56;6.90;99.90
9699;DHT22;10089;47.876;8.346;2022-11-03T07:50:21;6.90;99.90
9699;DHT22;10089;47.876;8.346;2022-11-03T07:52:47;6.90;99.90
9699;DHT22;10089;47.876;8.346;2022-11-03T07:55:12;6.90;99.90
9699;DHT22;10089;47.876;8.346;2022-11-03T07:57:38;6.90;99.90
9699;DHT22;10089;47.876;8.346;2022-11-03T08:00:05;6.90;99.90
9699;DHT22;10089;47.876;8.346;2022-11-03T08:02:46;7.00;99.90
9699;DHT22;10089;47.876;8.346;2022-11-03T08:05:13;7.00;99.90
9699;DHT22;10089;47.876;8.346;2022-11-03T08:07:38;6.90;99.90
9699;DHT22;10089;47.876;8.346;2022-11-03T08:10:04;6.90;99.90
9699;DHT22;10089;47.876;8.346;2022-11-03T08:12:31;7.00;99.90
9699;DHT22;10089;47.876;8.346;2022-11-03T08:14:57;7.00;99.90
9699;DHT22;10089;47.876;8.346;2022-11-03T08:17:22;7.20;99.90
9699;DHT22;10089;47.876;8.346;2022-11-03T08:19:48;7.10;99.90
9699;DHT22;10089;47.876;8.346;2022-11-03T08:22:13;7.20;99.90
9699;DHT22;10089;47.876;8.346;2022-11-03T08:24:39;7.40;99.90
9699;DHT22;10089;47.876;8.346;2022-11-03T08:27:05;7.50;99.90
9699;DHT22;10089;47.876;8.346;2022-11-03T08:29:30;7.60;99.90
9699;DHT22;10089;47.876;8.346;2022-11-03T08:31:59;7.60;99.90
9699;DHT22;10089;47.876;8.346;2022-11-03T08:34:24;7.70;99.90
9699;DHT22;10089;47.876;8.346;2022-11-03T08:36:50;7.80;99.90
9699;DHT22;10089;47.876;8.346;2022-11-03T08:39:15;7.80;99.90
9699;DHT22;10089;47.876;8.346;2022-11-03T08:41:41;7.90;99.90
9699;DHT22;10089;47.876;8.346;2022-11-03T08:44:09;8.00;99.90
9699;DHT22;10089;47.876;8.346;2022-11-03T08:46:34;7.90;99.90
9699;DHT22;10089;47.876;8.346;2022-11-03T08:49:00;8.10;99.90
9699;DHT22;10089;47.876;8.346;2022-11-03T08:51:26;8.20;99.90
9699;DHT22;10089;47.876;8.346;2022-11-03T08:53:52;8.40;99.90
9699;DHT22;10089;47.876;8.346;2022-11-03T08:56:20;8.20;99.90
9699;DHT22;10089;47.876;8.346;2022-11-03T08:58:46;8.20;99.90
9699;DHT22;10089;47.876;8.346;2022-11-03T09:01:12;8.20;99.90
9699;DHT22;10089;47.876;8.346;2022-11-03T09:03:38;7.80;99.90
9699;DHT22;10089;47.876;8.346;2022-11-03T09:06:03;8.10;99.90
9699;DHT22;10089;47.876;8.346;2022-11-03T09:08:29;8.10;99.90
9699;DHT22;10089;47.876;8.346;2022-11-03T09:10:54;8.10;99.90
9699;DHT22;10089;47.876;8.346;2022-11-03T09:13:20;8.10;99.90
9699;DHT22;10089;47.876;8.346;2022-11-03T09:15:45;8.20;99.90
9699;DHT22;10089;47.876;8.346;2022-11-03T09:18:11;8.30;99.90
9699;DHT22;10089;47.876;8.346;2022-11-03T09:20:37;8.40;99.90
9699;DHT22;10089;47.876;8.346;2022-11-03T09:23:02;8.50;99.90
9699;DHT22;10089;47.876;8.346;2022-11-03T09:25:28;8.60;99.90
9699;DHT22;10089;47.876;8.346;2022-11-03T09:27:53;8.80;99.90
9699;DHT22;10089;47.876;8.346;2022-11-03T09:30:19;8.90;99.90
9699;DHT22;10089;47.876;8.346;2022-11-03T09:32:45;9.10;99.90
9699;DHT22;10089;47.876;8.346;2022-11-03T09:35:11;9.30;99.90
9699;DHT22;10089;47.876;8.346;2022-11-03T09:37:38;9.00;99.90
9699;DHT22;10089;47.876;8.346;2022-11-03T09:40:04;9.20;99.90
9699;DHT22;10089;47.876;8.346;2022-11-03T09:42:31;9.40;99.90
9699;DHT22;10089;47.876;8.346;2022-11-03T09:44:58;9.50;99.90
9699;DHT22;10089;47.876;8.346;2022-11-03T09:47:31;9.40;99.90
9699;DHT22;10089;47.876;8.346;2022-11-03T09:49:57;9.50;99.90
9699;DHT22;10089;47.876;8.346;2022-11-03T09:52:23;9.60;99.90
9699;DHT22;10089;47.876;8.346;2022-11-03T09:54:50;9.70;99.90
9699;DHT22;10089;47.876;8.346;2022-11-03T09:57:16;9.70;99.90
9699;DHT22;10089;47.876;8.346;2022-11-03T09:59:42;9.40;99.90
9699;DHT22;10089;47.876;8.346;2022-11-03T10:02:13;9.20;99.90
9699;DHT22;10089;47.876;8.346;2022-11-03T10:04:40;9.20;99.90
9699;DHT22;10089;47.876;8.346;2022-11-03T10:07:06;9.30;99.90
9699;DHT22;10089;47.876;8.346;2022-11-03T10:09:32;9.40;99.90
9699;DHT22;10089;47.876;8.346;2022-11-03T10:11:58;9.60;99.90
9699;DHT22;10089;47.876;8.346;2022-11-03T10:14:23;9.50;99.90
9699;DHT22;10089;47.876;8.346;2022-11-03T10:16:55;9.50;99.90
9699;DHT22;10089;47.876;8.346;2022-11-03T10:19:22;9.50;99.90
9699;DHT22;10089;47.876;8.346;2022-11-03T10:21:48;9.50;99.90
9699;DHT22;10089;47.876;8.346;2022-11-03T10:24:13;9.60;99.90
9699;DHT22;10089;47.876;8.346;2022-11-03T10:26:43;9.60;99.90
9699;DHT22;10089;47.876;8.346;2022-11-03T10:29:12;9.70;99.90
9699;DHT22;10089;47.876;8.346;2022-11-03T10:31:44;9.60;99.90
9699;DHT22;10089;47.876;8.346;2022-11-03T10:34:32;9.60;99.90
9699;DHT22;10089;47.876;8.346;2022-11-03T10:39:42;9.70;99.90
9699;DHT22;10089;47.876;8.346;2022-11-03T10:42:14;9.60;99.90
9699;DHT22;10089;47.876;8.346;2022-11-03T10:44:40;9.40;99.90
9699;DHT22;10089;47.876;8.346;2022-11-03T10:47:09;9.50;99.90
9699;DHT22;10089;47.876;8.346;2022-11-03T10:49:45;9.50;99.90
9699;DHT22;10089;47.876;8.346;2022-11-03T10:52:21;9.50;99.90
9699;DHT22;10089;47.876;8.346;2022-11-03T10:54:47;9.50;99.90
9699;DHT22;10089;47.876;8.346;2022-11-03T10:57:13;9.40;99.90
9699;DHT22;10089;47.876;8.346;2022-11-03T10:59:39;9.20;99.90
9699;DHT22;10089;47.876;8.346;2022-11-03T11:02:18;9.00;99.90
9699;DHT22;10089;47.876;8.346;2022-11-03T11:04:45;9.10;99.90
9699;DHT22;10089;47.876;8.346;2022-11-03T11:07:14;9.30;99.90
9699;DHT22;10089;47.876;8.346;2022-11-03T11:09:42;9.00;99.90
9699;DHT22;10089;47.876;8.346;2022-11-03T11:12:15;9.30;99.90
9699;DHT22;10089;47.876;8.346;2022-11-03T11:14:51;9.20;99.90
9699;DHT22;10089;47.876;8.346;2022-11-03T11:22:45;9.20;99.90
9699;DHT22;10089;47.876;8.346;2022-11-03T11:25:11;9.20;99.90
9699;DHT22;10089;47.876;8.346;2022-11-03T11:37:48;9.80;99.90
9699;DHT22;10089;47.876;8.346;2022-11-03T11:40:24;9.80;99.90
9699;DHT22;10089;47.876;8.346;2022-11-03T11:48:15;10.20;99.90
9699;DHT22;10089;47.876;8.346;2022-11-03T11:50:41;10.10;99.90
9699;DHT22;10089;47.876;8.346;2022-11-03T11:58:05;10.60;99.90
9699;DHT22;10089;47.876;8.346;2022-11-03T12:00:32;10.70;99.90
9699;DHT22;10089;47.876;8.346;2022-11-03T12:02:58;10.60;99.90
9699;DHT22;10089;47.876;8.346;2022-11-03T12:05:27;10.60;99.90
9699;DHT22;10089;47.876;8.346;2022-11-03T12:07:53;10.50;99.90
9699;DHT22;10089;47.876;8.346;2022-11-03T12:10:20;10.40;99.90
9699;DHT22;10089;47.876;8.346;2022-11-03T12:12:53;10.50;99.90
9699;DHT22;10089;47.876;8.346;2022-11-03T12:20:49;10.50;99.90
9699;DHT22;10089;47.876;8.346;2022-11-03T12:25:59;10.60;99.90
9699;DHT22;10089;47.876;8.346;2022-11-03T12:28:32;10.50;99.90
9699;DHT22;10089;47.876;8.346;2022-11-03T12:30:58;10.40;99.90
9699;DHT22;10089;47.876;8.346;2022-11-03T12:33:25;10.50;99.90
9699;DHT22;10089;47.876;8.346;2022-11-03T12:35:50;10.10;99.90
9699;DHT22;10089;47.876;8.346;2022-11-03T12:38:16;10.10;99.90
9699;DHT22;10089;47.876;8.346;2022-11-03T12:40:41;10.00;99.90
9699;DHT22;10089;47.876;8.346;2022-11-03T12:43:07;9.80;99.90
9699;DHT22;10089;47.876;8.346;2022-11-03T12:45:32;9.90;99.90
9699;DHT22;10089;47.876;8.346;2022-11-03T12:47:58;9.90;99.90
9699;DHT22;10089;47.876;8.346;2022-11-03T12:50:23;9.90;99.90
9699;DHT22;10089;47.876;8.346;2022-11-03T12:52:49;10.00;99.90
9699;DHT22;10089;47.876;8.346;2022-11-03T12:55:14;9.80;99.90
9699;DHT22;10089;47.876;8.346;2022-11-03T12:57:40;9.80;99.90
9699;DHT22;10089;47.876;8.346;2022-11-03T13:00:06;9.80;99.90
9699;DHT22;10089;47.876;8.346;2022-11-03T13:02:32;9.80;99.90
9699;DHT22;10089;47.876;8.346;2022-11-03T13:05:01;9.80;99.90
9699;DHT22;10089;47.876;8.346;2022-11-03T13:07:27;9.70;99.90
9699;DHT22;10089;47.876;8.346;2022-11-03T13:09:53;9.60;99.90
9699;DHT22;10089;47.876;8.346;2022-11-03T13:12:19;9.80;99.90
9699;DHT22;10089;47.876;8.346;2022-11-03T13:14:57;9.90;99.90
9699;DHT22;10089;47.876;8.346;2022-11-03T13:17:24;9.90;99.90
9699;DHT22;10089;47.876;8.346;2022-11-03T13:19:50;10.10;99.90
9699;DHT22;10089;47.876;8.346;2022-11-03T13:22:15;10.30;99.90
9699;DHT22;10089;47.876;8.346;2022-11-03T13:24:41;10.50;23.40
9699;DHT22;10089;47.876;8.346;2022-11-03T13:27:07;10.60;1.00
9699;DHT22;10089;47.876;8.346;2022-11-03T13:29:32;10.60;1.00
9699;DHT22;10089;47.876;8.346;2022-11-03T13:31:58;10.70;1.00
9699;DHT22;10089;47.876;8.346;2022-11-03T13:34:24;10.70;1.00
9699;DHT22;10089;47.876;8.346;2022-11-03T13:36:49;10.80;1.00
9699;DHT22;10089;47.876;8.346;2022-11-03T13:39:15;10.80;28.90
9699;DHT22;10089;47.876;8.346;2022-11-03T13:41:40;10.70;99.90
9699;DHT22;10089;47.876;8.346;2022-11-03T13:44:06;10.70;99.90
9699;DHT22;10089;47.876;8.346;2022-11-03T13:46:33;10.60;99.90
9699;DHT22;10089;47.876;8.346;2022-11-03T13:48:58;10.50;99.90
9699;DHT22;10089;47.876;8.346;2022-11-03T13:51:24;10.40;99.90
9699;DHT22;10089;47.876;8.346;2022-11-03T13:53:49;10.40;99.90
9699;DHT22;10089;47.876;8.346;2022-11-03T13:56:15;10.30;99.90
9699;DHT22;10089;47.876;8.346;2022-11-03T13:58:40;10.30;99.90
9699;DHT22;10089;47.876;8.346;2022-11-03T14:01:06;9.90;99.90
9699;DHT22;10089;47.876;8.346;2022-11-03T14:03:32;10.00;99.90
9699;DHT22;10089;47.876;8.346;2022-11-03T14:05:57;9.90;99.90
9699;DHT22;10089;47.876;8.346;2022-11-03T14:08:23;9.80;99.90
9699;DHT22;10089;47.876;8.346;2022-11-03T14:10:48;9.60;99.90
9699;DHT22;10089;47.876;8.346;2022-11-03T14:13:14;9.60;99.90
9699;DHT22;10089;47.876;8.346;2022-11-03T14:15:40;9.60;99.90
9699;DHT22;10089;47.876;8.346;2022-11-03T14:18:05;9.40;99.90
9699;DHT22;10089;47.876;8.346;2022-11-03T14:20:31;9.50;99.90
9699;DHT22;10089;47.876;8.346;2022-11-03T14:22:57;9.50;99.90
9699;DHT22;10089;47.876;8.346;2022-11-03T14:25:23;9.20;99.90
9699;DHT22;10089;47.876;8.346;2022-11-03T14:27:51;9.20;99.90
9699;DHT22;10089;47.876;8.346;2022-11-03T14:30:17;9.10;99.90
9699;DHT22;10089;47.876;8.346;2022-11-03T14:32:42;9.10;99.90
9699;DHT22;10089;47.876;8.346;2022-11-03T14:35:08;9.00;99.90
9699;DHT22;10089;47.876;8.346;2022-11-03T14:37:34;9.10;99.90
9699;DHT22;10089;47.876;8.346;2022-11-03T14:39:59;9.20;99.90
9699;DHT22;10089;47.876;8.346;2022-11-03T14:42:25;9.20;99.90
9699;DHT22;10089;47.876;8.346;2022-11-03T14:44:51;9.20;99.90
9699;DHT22;10089;47.876;8.346;2022-11-03T14:47:18;9.20;99.90
9699;DHT22;10089;47.876;8.346;2022-11-03T14:49:46;9.20;99.90
9699;DHT22;10089;47.876;8.346;2022-11-03T14:52:11;9.20;99.90
9699;DHT22;10089;47.876;8.346;2022-11-03T14:54:37;9.10;99.90
9699;DHT22;10089;47.876;8.346;2022-11-03T14:57:03;9.00;99.90
9699;DHT22;10089;47.876;8.346;2022-11-03T14:59:29;9.00;99.90
9699;DHT22;10089;47.876;8.346;2022-11-03T15:01:55;8.70;99.90
9699;DHT22;10089;47.876;8.346;2022-11-03T15:04:21;8.60;99.90
9699;DHT22;10089;47.876;8.346;2022-11-03T15:06:47;8.60;99.90
9699;DHT22;10089;47.876;8.346;2022-11-03T15:09:13;8.60;99.90
9699;DHT22;10089;47.876;8.346;2022-11-03T15:11:39;8.70;99.90
9699;DHT22;10089;47.876;8.346;2022-11-03T15:14:05;8.70;99.90
9699;DHT22;10089;47.876;8.346;2022-11-03T15:16:30;8.70;99.90
9699;DHT22;10089;47.876;8.346;2022-11-03T15:18:56;8.70;99.90
9699;DHT22;10089;47.876;8.346;2022-11-03T15:21:21;8.70;99.90
9699;DHT22;10089;47.876;8.346;2022-11-03T15:23:48;8.70;99.90
9699;DHT22;10089;47.876;8.346;2022-11-03T15:26:14;8.70;99.90
9699;DHT22;10089;47.876;8.346;2022-11-03T15:28:39;8.60;99.90
9699;DHT22;10089;47.876;8.346;2022-11-03T15:31:07;8.60;99.90
9699;DHT22;10089;47.876;8.346;2022-11-03T15:33:32;8.50;99.90
9699;DHT22;10089;47.876;8.346;2022-11-03T15:35:58;8.50;99.90
9699;DHT22;10089;47.876;8.346;2022-11-03T15:38:24;8.50;99.90
9699;DHT22;10089;47.876;8.346;2022-11-03T15:40:50;8.50;99.90
9699;DHT22;10089;47.876;8.346;2022-11-03T15:43:15;8.40;99.90
9699;DHT22;10089;47.876;8.346;2022-11-03T15:45:41;8.40;99.90
9699;DHT22;10089;47.876;8.346;2022-11-03T15:48:06;8.50;99.90
9699;DHT22;10089;47.876;8.346;2022-11-03T15:50:32;8.50;99.90
9699;DHT22;10089;47.876;8.346;2022-11-03T15:52:58;8.50;99.90
9699;DHT22;10089;47.876;8.346;2022-11-03T15:55:23;8.40;99.90
9699;DHT22;10089;47.876;8.346;2022-11-03T15:57:50;8.40;99.90
9699;DHT22;10089;47.876;8.346;2022-11-03T16:00:16;8.40;99.90
9699;DHT22;10089;47.876;8.346;2022-11-03T16:02:43;8.30;99.90
9699;DHT22;10089;47.876;8.346;2022-11-03T16:05:09;8.30;99.90
9699;DHT22;10089;47.876;8.346;2022-11-03T16:07:35;8.40;99.90
9699;DHT22;10089;47.876;8.346;2022-11-03T16:10:00;8.40;99.90
9699;DHT22;10089;47.876;8.346;2022-11-03T16:12:26;8.30;99.90
9699;DHT22;10089;47.876;8.346;2022-11-03T16:14:51;8.30;99.90
9699;DHT22;10089;47.876;8.346;2022-11-03T16:17:18;8.30;99.90
9699;DHT22;10089;47.876;8.346;2022-11-03T16:19:43;8.20;99.90
9699;DHT22;10089;47.876;8.346;2022-11-03T16:22:09;8.30;99.90
9699;DHT22;10089;47.876;8.346;2022-11-03T16:24:35;8.30;99.90
9699;DHT22;10089;47.876;8.346;2022-11-03T16:27:01;8.40;99.90
9699;DHT22;10089;47.876;8.346;2022-11-03T16:29:27;8.40;99.90
9699;DHT22;10089;47.876;8.346;2022-11-03T16:31:52;8.50;99.90
9699;DHT22;10089;47.876;8.346;2022-11-03T16:34:18;8.50;99.90
9699;DHT22;10089;47.876;8.346;2022-11-03T16:36:43;8.40;99.90
9699;DHT22;10089;47.876;8.346;2022-11-03T16:39:27;8.30;99.90
9699;DHT22;10089;47.876;8.346;2022-11-03T17:55:45;8.70;99.90
9699;DHT22;10089;47.876;8.346;2022-11-03T17:58:11;8.70;99.90
9699;DHT22;10089;47.876;8.346;2022-11-03T18:00:36;8.70;99.90
9699;DHT22;10089;47.876;8.346;2022-11-03T18:03:02;8.70;99.90
9699;DHT22;10089;47.876;8.346;2022-11-03T18:05:29;8.70;99.90
9699;DHT22;10089;47.876;8.346;2022-11-03T18:07:59;8.60;99.90
9699;DHT22;10089;47.876;8.346;2022-11-03T18:10:29;8.70;99.90
9699;DHT22;10089;47.876;8.346;2022-11-03T18:12:57;8.70;99.90
9699;DHT22;10089;47.876;8.346;2022-11-03T18:18:29;8.80;99.90
9699;DHT22;10089;47.876;8.346;2022-11-03T18:20:55;8.80;99.90
9699;DHT22;10089;47.876;8.346;2022-11-03T18:23:23;8.80;99.90
9699;DHT22;10089;47.876;8.346;2022-11-03T18:25:49;8.70;99.90
9699;DHT22;10089;47.876;8.346;2022-11-03T18:28:15;8.70;99.90
9699;DHT22;10089;47.876;8.346;2022-11-03T18:30:41;8.70;99.90
9699;DHT22;10089;47.876;8.346;2022-11-03T18:35:52;8.70;99.90